sensor_id;sensor_type;location;lat;lon;timestamp;temperature;humidity
34279;DHT22;20538;51.528;9.942;2022-07-29T00:02:25;19.10;88.60
34279;DHT22;20538;51.528;9.942;2022-07-29T00:04:51;19.00;89.50
34279;DHT22;20538;51.528;9.942;2022-07-29T00:07:17;18.90;90.20
34279;DHT22;20538;51.528;9.942;2022-07-29T00:09:42;18.80;90.20
34279;DHT22;20538;51.528;9.942;2022-07-29T00:12:08;18.80;90.00
34279;DHT22;20538;51.528;9.942;2022-07-29T00:14:34;18.70;90.30
34279;DHT22;20538;51.528;9.942;2022-07-29T00:17:00;18.60;90.40
34279;DHT22;20538;51.528;9.942;2022-07-29T00:19:25;18.60;90.60
34279;DHT22;20538;51.528;9.942;2022-07-29T00:21:51;18.60;90.70
34279;DHT22;20538;51.528;9.942;2022-07-29T00:24:17;18.50;91.10
34279;DHT22;20538;51.528;9.942;2022-07-29T00:26:43;18.40;91.50
34279;DHT22;20538;51.528;9.942;2022-07-29T00:29:08;18.30;91.80
34279;DHT22;20538;51.528;9.942;2022-07-29T00:31:34;18.30;91.90
34279;DHT22;20538;51.528;9.942;2022-07-29T00:34:00;18.20;92.10
34279;DHT22;20538;51.528;9.942;2022-07-29T00:36:26;18.20;92.20
34279;DHT22;20538;51.528;9.942;2022-07-29T00:38:52;18.20;92.10
34279;DHT22;20538;51.528;9.942;2022-07-29T00:41:18;18.40;91.60
34279;DHT22;20538;51.528;9.942;2022-07-29T00:43:45;18.40;92.10
34279;DHT22;20538;51.528;9.942;2022-07-29T00:46:11;18.40;92.50
34279;DHT22;20538;51.528;9.942;2022-07-29T00:48:37;18.30;92.50
34279;DHT22;20538;51.528;9.942;2022-07-29T00:51:04;18.30;92.90
34279;DHT22;20538;51.528;9.942;2022-07-29T00:53:31;18.30;93.20
34279;DHT22;20538;51.528;9.942;2022-07-29T00:55:58;18.30;93.00
34279;DHT22;20538;51.528;9.942;2022-07-29T00:58:24;18.30;93.10
34279;DHT22;20538;51.528;9.942;2022-07-29T01:00:51;18.30;93.00
34279;DHT22;20538;51.528;9.942;2022-07-29T01:03:17;18.30;93.30
34279;DHT22;20538;51.528;9.942;2022-07-29T01:05:44;18.30;93.30
34279;DHT22;20538;51.528;9.942;2022-07-29T01:08:12;18.20;93.60
34279;DHT22;20538;51.528;9.942;2022-07-29T01:10:39;18.10;93.60
34279;DHT22;20538;51.528;9.942;2022-07-29T01:13:07;18.20;93.70
34279;DHT22;20538;51.528;9.942;2022-07-29T01:15:38;18.20;93.80
34279;DHT22;20538;51.528;9.942;2022-07-29T01:18:18;18.10;94.30
34279;DHT22;20538;51.528;9.942;2022-07-29T01:26:34;18.20;94.50
34279;DHT22;20538;51.528;9.942;2022-07-29T01:32:07;18.20;95.20
34279;DHT22;20538;51.528;9.942;2022-07-29T01:34:47;18.10;95.50
34279;DHT22;20538;51.528;9.942;2022-07-29T01:37:28;18.20;95.20
34279;DHT22;20538;51.528;9.942;2022-07-29T01:39:57;18.20;94.60
34279;DHT22;20538;51.528;9.942;2022-07-29T01:42:32;18.20;94.60
34279;DHT22;20538;51.528;9.942;2022-07-29T01:45:43;18.20;94.60
34279;DHT22;20538;51.528;9.942;2022-07-29T01:48:24;18.20;94.40
34279;DHT22;20538;51.528;9.942;2022-07-29T01:51:04;18.30;94.60
34279;DHT22;20538;51.528;9.942;2022-07-29T01:53:37;18.20;94.50
34279;DHT22;20538;51.528;9.942;2022-07-29T01:56:06;18.20;95.00
34279;DHT22;20538;51.528;9.942;2022-07-29T01:58:35;18.20;95.50
34279;DHT22;20538;51.528;9.942;2022-07-29T02:01:04;18.10;95.40
34279;DHT22;20538;51.528;9.942;2022-07-29T02:03:32;18.10;95.10
34279;DHT22;20538;51.528;9.942;2022-07-29T02:06:00;18.10;95.00
34279;DHT22;20538;51.528;9.942;2022-07-29T02:08:28;18.00;95.30
34279;DHT22;20538;51.528;9.942;2022-07-29T02:10:55;18.00;95.40
34279;DHT22;20538;51.528;9.942;2022-07-29T02:13:22;18.00;95.40
34279;DHT22;20538;51.528;9.942;2022-07-29T02:15:50;18.00;95.80
34279;DHT22;20538;51.528;9.942;2022-07-29T02:18:19;18.00;95.90
34279;DHT22;20538;51.528;9.942;2022-07-29T02:20:49;18.00;95.50
34279;DHT22;20538;51.528;9.942;2022-07-29T02:23:20;18.00;96.00
34279;DHT22;20538;51.528;9.942;2022-07-29T02:25:49;18.00;95.70
34279;DHT22;20538;51.528;9.942;2022-07-29T02:28:17;18.00;96.50
34279;DHT22;20538;51.528;9.942;2022-07-29T02:30:45;17.90;96.50
34279;DHT22;20538;51.528;9.942;2022-07-29T02:33:13;17.90;97.10
34279;DHT22;20538;51.528;9.942;2022-07-29T02:35:41;17.80;96.50
34279;DHT22;20538;51.528;9.942;2022-07-29T02:38:09;17.80;96.80
34279;DHT22;20538;51.528;9.942;2022-07-29T02:40:56;17.80;97.50
34279;DHT22;20538;51.528;9.942;2022-07-29T02:43:24;17.80;97.20
34279;DHT22;20538;51.528;9.942;2022-07-29T02:45:53;17.80;97.60
34279;DHT22;20538;51.528;9.942;2022-07-29T02:48:25;17.80;97.70
34279;DHT22;20538;51.528;9.942;2022-07-29T02:51:01;17.70;98.30
34279;DHT22;20538;51.528;9.942;2022-07-29T02:53:33;17.70;98.50
34279;DHT22;20538;51.528;9.942;2022-07-29T02:56:01;17.60;98.70
34279;DHT22;20538;51.528;9.942;2022-07-29T02:58:41;17.60;99.30
34279;DHT22;20538;51.528;9.942;2022-07-29T03:01:24;17.50;99.30
34279;DHT22;20538;51.528;9.942;2022-07-29T03:03:53;17.50;99.70
34279;DHT22;20538;51.528;9.942;2022-07-29T03:06:21;17.50;99.90
34279;DHT22;20538;51.528;9.942;2022-07-29T03:08:47;17.50;99.90
34279;DHT22;20538;51.528;9.942;2022-07-29T03:11:14;17.40;99.90
34279;DHT22;20538;51.528;9.942;2022-07-29T03:13:40;17.40;99.90
34279;DHT22;20538;51.528;9.942;2022-07-29T03:16:07;17.40;99.90
34279;DHT22;20538;51.528;9.942;2022-07-29T03:18:34;17.40;99.90
34279;DHT22;20538;51.528;9.942;2022-07-29T03:21:00;17.30;99.90
34279;DHT22;20538;51.528;9.942;2022-07-29T03:23:26;17.30;99.90
34279;DHT22;20538;51.528;9.942;2022-07-29T03:25:53;17.30;99.90
34279;DHT22;20538;51.528;9.942;2022-07-29T03:28:19;17.30;99.90
34279;DHT22;20538;51.528;9.942;2022-07-29T03:30:46;17.30;99.90
34279;DHT22;20538;51.528;9.942;2022-07-29T03:33:12;17.30;99.90
34279;DHT22;20538;51.528;9.942;2022-07-29T03:35:38;17.40;99.90
34279;DHT22;20538;51.528;9.942;2022-07-29T03:38:04;17.40;99.90
34279;DHT22;20538;51.528;9.942;2022-07-29T03:40:40;17.40;99.90
34279;DHT22;20538;51.528;9.942;2022-07-29T03:43:09;17.40;99.90
34279;DHT22;20538;51.528;9.942;2022-07-29T03:45:36;17.40;99.90
34279;DHT22;20538;51.528;9.942;2022-07-29T03:48:08;17.40;99.90
34279;DHT22;20538;51.528;9.942;2022-07-29T03:50:35;17.40;99.90
34279;DHT22;20538;51.528;9.942;2022-07-29T03:53:02;17.30;99.90
34279;DHT22;20538;51.528;9.942;2022-07-29T03:55:30;17.30;99.90
34279;DHT22;20538;51.528;9.942;2022-07-29T03:57:58;17.30;99.90
34279;DHT22;20538;51.528;9.942;2022-07-29T04:00:25;17.30;99.90
34279;DHT22;20538;51.528;9.942;2022-07-29T04:02:52;17.30;99.90
34279;DHT22;20538;51.528;9.942;2022-07-29T04:05:18;17.20;99.90
34279;DHT22;20538;51.528;9.942;2022-07-29T04:07:46;17.20;99.90
34279;DHT22;20538;51.528;9.942;2022-07-29T04:10:13;17.20;99.90
34279;DHT22;20538;51.528;9.942;2022-07-29T04:12:41;17.20;99.90
34279;DHT22;20538;51.528;9.942;2022-07-29T04:15:07;17.20;99.90
34279;DHT22;20538;51.528;9.942;2022-07-29T04:17:33;17.20;99.90
34279;DHT22;20538;51.528;9.942;2022-07-29T04:19:58;17.10;99.90
34279;DHT22;20538;51.528;9.942;2022-07-29T04:22:24;17.10;99.90
34279;DHT22;20538;51.528;9.942;2022-07-29T04:24:50;17.00;99.90
34279;DHT22;20538;51.528;9.942;2022-07-29T04:27:15;17.00;99.90
34279;DHT22;20538;51.528;9.942;2022-07-29T04:29:41;16.90;99.90
34279;DHT22;20538;51.528;9.942;2022-07-29T04:32:07;16.90;99.90
34279;DHT22;20538;51.528;9.942;2022-07-29T04:34:32;16.90;99.90
34279;DHT22;20538;51.528;9.942;2022-07-29T04:36:58;16.90;99.90
34279;DHT22;20538;51.528;9.942;2022-07-29T04:39:24;16.90;99.90
34279;DHT22;20538;51.528;9.942;2022-07-29T04:41:51;16.90;99.90
34279;DHT22;20538;51.528;9.942;2022-07-29T04:44:17;17.00;99.90
34279;DHT22;20538;51.528;9.942;2022-07-29T04:46:42;17.10;99.90
34279;DHT22;20538;51.528;9.942;2022-07-29T04:49:08;17.20;99.90
34279;DHT22;20538;51.528;9.942;2022-07-29T04:51:35;17.30;99.90
34279;DHT22;20538;51.528;9.942;2022-07-29T04:54:00;17.30;99.90
34279;DHT22;20538;51.528;9.942;2022-07-29T04:56:26;17.40;99.90
34279;DHT22;20538;51.528;9.942;2022-07-29T04:58:52;17.50;99.90
34279;DHT22;20538;51.528;9.942;2022-07-29T05:01:18;17.60;99.90
34279;DHT22;20538;51.528;9.942;2022-07-29T05:03:44;17.70;99.90
34279;DHT22;20538;51.528;9.942;2022-07-29T05:06:10;17.80;99.90
34279;DHT22;20538;51.528;9.942;2022-07-29T05:08:36;17.90;99.90
34279;DHT22;20538;51.528;9.942;2022-07-29T05:11:02;17.80;99.90
34279;DHT22;20538;51.528;9.942;2022-07-29T05:13:28;17.80;99.90
34279;DHT22;20538;51.528;9.942;2022-07-29T05:15:54;17.70;99.90
34279;DHT22;20538;51.528;9.942;2022-07-29T05:18:20;17.50;99.90
34279;DHT22;20538;51.528;9.942;2022-07-29T05:20:45;17.60;99.90
34279;DHT22;20538;51.528;9.942;2022-07-29T05:23:11;18.00;99.90
34279;DHT22;20538;51.528;9.942;2022-07-29T05:25:38;18.70;99.90
34279;DHT22;20538;51.528;9.942;2022-07-29T05:28:04;18.80;99.90
34279;DHT22;20538;51.528;9.942;2022-07-29T05:30:30;19.00;99.90
34279;DHT22;20538;51.528;9.942;2022-07-29T05:32:55;19.70;99.90
34279;DHT22;20538;51.528;9.942;2022-07-29T05:35:21;19.40;99.90
34279;DHT22;20538;51.528;9.942;2022-07-29T05:37:46;19.10;99.90
34279;DHT22;20538;51.528;9.942;2022-07-29T05:40:12;18.80;99.90
34279;DHT22;20538;51.528;9.942;2022-07-29T05:42:38;18.70;99.90
34279;DHT22;20538;51.528;9.942;2022-07-29T05:45:04;18.90;99.90
34279;DHT22;20538;51.528;9.942;2022-07-29T05:47:30;18.90;99.90
34279;DHT22;20538;51.528;9.942;2022-07-29T05:49:56;19.00;99.90
34279;DHT22;20538;51.528;9.942;2022-07-29T05:52:21;20.10;99.90
34279;DHT22;20538;51.528;9.942;2022-07-29T05:54:47;20.60;97.80
34279;DHT22;20538;51.528;9.942;2022-07-29T05:57:20;19.80;98.80
34279;DHT22;20538;51.528;9.942;2022-07-29T05:59:47;19.90;99.10
34279;DHT22;20538;51.528;9.942;2022-07-29T06:02:12;20.60;98.50
34279;DHT22;20538;51.528;9.942;2022-07-29T06:04:38;20.50;98.40
34279;DHT22;20538;51.528;9.942;2022-07-29T06:07:04;20.30;98.20
34279;DHT22;20538;51.528;9.942;2022-07-29T06:09:29;20.30;99.70
34279;DHT22;20538;51.528;9.942;2022-07-29T06:11:55;20.10;99.90
34279;DHT22;20538;51.528;9.942;2022-07-29T06:14:21;20.00;99.40
34279;DHT22;20538;51.528;9.942;2022-07-29T06:16:47;20.00;99.90
34279;DHT22;20538;51.528;9.942;2022-07-29T06:19:12;20.00;99.90
34279;DHT22;20538;51.528;9.942;2022-07-29T06:21:45;20.00;98.80
34279;DHT22;20538;51.528;9.942;2022-07-29T06:24:12;20.00;99.90
34279;DHT22;20538;51.528;9.942;2022-07-29T06:26:39;19.90;99.90
34279;DHT22;20538;51.528;9.942;2022-07-29T06:29:05;19.80;99.80
34279;DHT22;20538;51.528;9.942;2022-07-29T06:31:30;19.70;99.00
34279;DHT22;20538;51.528;9.942;2022-07-29T06:33:56;19.80;99.30
34279;DHT22;20538;51.528;9.942;2022-07-29T06:36:22;19.80;99.40
34279;DHT22;20538;51.528;9.942;2022-07-29T06:38:47;20.10;99.90
34279;DHT22;20538;51.528;9.942;2022-07-29T06:41:13;20.30;99.50
34279;DHT22;20538;51.528;9.942;2022-07-29T06:43:42;20.50;99.00
34279;DHT22;20538;51.528;9.942;2022-07-29T06:46:10;20.70;99.00
34279;DHT22;20538;51.528;9.942;2022-07-29T06:48:36;20.70;97.60
34279;DHT22;20538;51.528;9.942;2022-07-29T06:51:03;20.70;98.80
34279;DHT22;20538;51.528;9.942;2022-07-29T06:53:30;20.70;97.80
34279;DHT22;20538;51.528;9.942;2022-07-29T06:55:56;20.30;95.80
34279;DHT22;20538;51.528;9.942;2022-07-29T06:58:23;20.40;97.50
34279;DHT22;20538;51.528;9.942;2022-07-29T07:00:49;20.50;96.70
34279;DHT22;20538;51.528;9.942;2022-07-29T07:03:16;20.70;98.60
34279;DHT22;20538;51.528;9.942;2022-07-29T07:05:42;20.70;97.30
34279;DHT22;20538;51.528;9.942;2022-07-29T07:08:08;20.90;98.70
34279;DHT22;20538;51.528;9.942;2022-07-29T07:10:34;20.70;96.20
34279;DHT22;20538;51.528;9.942;2022-07-29T07:13:00;20.80;96.90
34279;DHT22;20538;51.528;9.942;2022-07-29T07:15:27;20.90;97.30
34279;DHT22;20538;51.528;9.942;2022-07-29T07:17:53;21.00;95.80
34279;DHT22;20538;51.528;9.942;2022-07-29T07:20:19;21.00;97.60
34279;DHT22;20538;51.528;9.942;2022-07-29T07:22:45;21.00;94.90
34279;DHT22;20538;51.528;9.942;2022-07-29T07:25:11;20.90;94.90
34279;DHT22;20538;51.528;9.942;2022-07-29T07:27:37;20.90;95.20
34279;DHT22;20538;51.528;9.942;2022-07-29T07:30:04;20.90;95.00
34279;DHT22;20538;51.528;9.942;2022-07-29T07:32:33;21.10;95.60
34279;DHT22;20538;51.528;9.942;2022-07-29T07:34:58;21.20;96.80
34279;DHT22;20538;51.528;9.942;2022-07-29T07:37:24;21.30;95.70
34279;DHT22;20538;51.528;9.942;2022-07-29T07:39:51;21.40;95.40
34279;DHT22;20538;51.528;9.942;2022-07-29T07:42:18;21.60;97.30
34279;DHT22;20538;51.528;9.942;2022-07-29T07:44:43;21.30;93.60
34279;DHT22;20538;51.528;9.942;2022-07-29T07:47:11;21.40;95.60
34279;DHT22;20538;51.528;9.942;2022-07-29T07:49:37;21.20;93.80
34279;DHT22;20538;51.528;9.942;2022-07-29T07:52:03;21.20;94.00
34279;DHT22;20538;51.528;9.942;2022-07-29T07:54:29;21.40;95.60
34279;DHT22;20538;51.528;9.942;2022-07-29T07:56:54;21.70;96.90
34279;DHT22;20538;51.528;9.942;2022-07-29T07:59:20;22.00;95.10
34279;DHT22;20538;51.528;9.942;2022-07-29T08:01:46;22.00;94.60
34279;DHT22;20538;51.528;9.942;2022-07-29T08:04:11;22.10;94.50
34279;DHT22;20538;51.528;9.942;2022-07-29T08:06:37;22.20;95.70
34279;DHT22;20538;51.528;9.942;2022-07-29T08:09:04;22.30;93.40
34279;DHT22;20538;51.528;9.942;2022-07-29T08:11:30;22.30;94.40
34279;DHT22;20538;51.528;9.942;2022-07-29T08:13:56;22.50;94.20
34279;DHT22;20538;51.528;9.942;2022-07-29T08:16:22;22.60;93.80
34279;DHT22;20538;51.528;9.942;2022-07-29T08:18:48;22.60;93.30
34279;DHT22;20538;51.528;9.942;2022-07-29T08:21:15;22.60;93.00
34279;DHT22;20538;51.528;9.942;2022-07-29T08:23:41;22.60;92.20
34279;DHT22;20538;51.528;9.942;2022-07-29T08:26:13;22.60;92.60
34279;DHT22;20538;51.528;9.942;2022-07-29T08:28:44;22.60;92.00
34279;DHT22;20538;51.528;9.942;2022-07-29T08:31:11;22.70;92.60
34279;DHT22;20538;51.528;9.942;2022-07-29T08:33:37;22.80;92.00
34279;DHT22;20538;51.528;9.942;2022-07-29T08:36:04;22.90;91.50
34279;DHT22;20538;51.528;9.942;2022-07-29T08:38:30;22.90;90.80
34279;DHT22;20538;51.528;9.942;2022-07-29T08:40:55;22.90;91.30
34279;DHT22;20538;51.528;9.942;2022-07-29T08:43:21;23.10;90.20
34279;DHT22;20538;51.528;9.942;2022-07-29T08:45:51;23.20;91.90
34279;DHT22;20538;51.528;9.942;2022-07-29T08:48:21;23.30;91.50
34279;DHT22;20538;51.528;9.942;2022-07-29T08:50:49;23.40;92.00
34279;DHT22;20538;51.528;9.942;2022-07-29T08:53:17;23.40;92.60
34279;DHT22;20538;51.528;9.942;2022-07-29T08:55:44;23.40;91.40
34279;DHT22;20538;51.528;9.942;2022-07-29T08:58:11;23.50;90.30
34279;DHT22;20538;51.528;9.942;2022-07-29T09:00:42;23.50;90.60
34279;DHT22;20538;51.528;9.942;2022-07-29T09:03:12;23.00;88.70
34279;DHT22;20538;51.528;9.942;2022-07-29T09:05:42;23.20;90.50
34279;DHT22;20538;51.528;9.942;2022-07-29T09:08:08;23.00;87.90
34279;DHT22;20538;51.528;9.942;2022-07-29T09:10:45;22.90;92.20
34279;DHT22;20538;51.528;9.942;2022-07-29T09:13:11;22.80;90.50
34279;DHT22;20538;51.528;9.942;2022-07-29T09:15:39;22.50;90.40
34279;DHT22;20538;51.528;9.942;2022-07-29T09:18:05;22.00;90.50
34279;DHT22;20538;51.528;9.942;2022-07-29T09:20:31;22.00;91.10
34279;DHT22;20538;51.528;9.942;2022-07-29T09:23:15;22.00;90.60
34279;DHT22;20538;51.528;9.942;2022-07-29T09:25:41;22.10;91.40
34279;DHT22;20538;51.528;9.942;2022-07-29T09:28:14;22.10;91.20
34279;DHT22;20538;51.528;9.942;2022-07-29T09:30:52;22.00;91.20
34279;DHT22;20538;51.528;9.942;2022-07-29T09:33:18;22.10;92.40
34279;DHT22;20538;51.528;9.942;2022-07-29T09:36:19;22.00;92.40
34279;DHT22;20538;51.528;9.942;2022-07-29T09:38:57;21.90;92.60
34279;DHT22;20538;51.528;9.942;2022-07-29T09:41:24;21.90;91.90
34279;DHT22;20538;51.528;9.942;2022-07-29T09:43:54;22.00;92.30
34279;DHT22;20538;51.528;9.942;2022-07-29T09:46:20;22.10;92.90
34279;DHT22;20538;51.528;9.942;2022-07-29T09:49:09;22.00;93.10
34279;DHT22;20538;51.528;9.942;2022-07-29T09:51:35;22.00;93.00
34279;DHT22;20538;51.528;9.942;2022-07-29T09:54:01;21.90;92.90
34279;DHT22;20538;51.528;9.942;2022-07-29T09:56:42;21.90;92.30
34279;DHT22;20538;51.528;9.942;2022-07-29T09:59:08;21.60;91.70
34279;DHT22;20538;51.528;9.942;2022-07-29T10:01:34;21.40;92.20
34279;DHT22;20538;51.528;9.942;2022-07-29T10:04:02;21.40;92.70
34279;DHT22;20538;51.528;9.942;2022-07-29T10:06:28;21.50;92.80
34279;DHT22;20538;51.528;9.942;2022-07-29T10:08:54;21.50;92.90
34279;DHT22;20538;51.528;9.942;2022-07-29T10:11:26;21.50;92.40
34279;DHT22;20538;51.528;9.942;2022-07-29T10:13:52;21.60;93.20
34279;DHT22;20538;51.528;9.942;2022-07-29T10:16:17;21.70;92.80
34279;DHT22;20538;51.528;9.942;2022-07-29T10:18:44;21.80;92.50
34279;DHT22;20538;51.528;9.942;2022-07-29T10:21:12;21.80;92.20
34279;DHT22;20538;51.528;9.942;2022-07-29T10:23:38;22.00;92.70
34279;DHT22;20538;51.528;9.942;2022-07-29T10:26:05;22.00;92.20
34279;DHT22;20538;51.528;9.942;2022-07-29T10:28:31;22.40;92.80
34279;DHT22;20538;51.528;9.942;2022-07-29T10:31:05;22.50;92.70
34279;DHT22;20538;51.528;9.942;2022-07-29T10:38:53;22.90;90.70
34279;DHT22;20538;51.528;9.942;2022-07-29T10:44:08;24.10;90.00
34279;DHT22;20538;51.528;9.942;2022-07-29T10:46:36;24.00;88.40
34279;DHT22;20538;51.528;9.942;2022-07-29T10:49:11;23.90;89.00
34279;DHT22;20538;51.528;9.942;2022-07-29T10:57:12;25.00;90.00
34279;DHT22;20538;51.528;9.942;2022-07-29T10:59:52;25.20;90.00
34279;DHT22;20538;51.528;9.942;2022-07-29T11:05:12;24.80;86.70
34279;DHT22;20538;51.528;9.942;2022-07-29T11:08:16;24.70;86.90
34279;DHT22;20538;51.528;9.942;2022-07-29T11:10:26;24.70;87.80
34279;DHT22;20538;51.528;9.942;2022-07-29T11:12:52;24.80;87.30
34279;DHT22;20538;51.528;9.942;2022-07-29T11:15:20;24.70;88.00
34279;DHT22;20538;51.528;9.942;2022-07-29T11:20:43;25.40;88.30
34279;DHT22;20538;51.528;9.942;2022-07-29T11:29:06;26.00;88.80
34279;DHT22;20538;51.528;9.942;2022-07-29T11:31:45;26.00;86.80
34279;DHT22;20538;51.528;9.942;2022-07-29T11:34:31;26.10;86.10
34279;DHT22;20538;51.528;9.942;2022-07-29T11:47:35;26.50;79.20
34279;DHT22;20538;51.528;9.942;2022-07-29T11:50:09;26.30;77.70
34279;DHT22;20538;51.528;9.942;2022-07-29T11:52:39;26.60;79.20
34279;DHT22;20538;51.528;9.942;2022-07-29T11:55:12;26.60;77.90
34279;DHT22;20538;51.528;9.942;2022-07-29T11:57:50;26.20;77.50
34279;DHT22;20538;51.528;9.942;2022-07-29T12:03:26;26.30;76.90
34279;DHT22;20538;51.528;9.942;2022-07-29T12:05:52;26.60;77.10
34279;DHT22;20538;51.528;9.942;2022-07-29T12:08:19;26.80;76.20
34279;DHT22;20538;51.528;9.942;2022-07-29T12:10:50;26.80;76.20
34279;DHT22;20538;51.528;9.942;2022-07-29T12:13:18;26.90;74.90
34279;DHT22;20538;51.528;9.942;2022-07-29T12:15:57;27.10;74.50
34279;DHT22;20538;51.528;9.942;2022-07-29T12:18:23;27.50;74.90
34279;DHT22;20538;51.528;9.942;2022-07-29T12:20:57;27.60;73.10
34279;DHT22;20538;51.528;9.942;2022-07-29T12:23:23;27.50;72.10
34279;DHT22;20538;51.528;9.942;2022-07-29T12:25:49;27.40;72.20
34279;DHT22;20538;51.528;9.942;2022-07-29T12:28:14;27.00;72.50
34279;DHT22;20538;51.528;9.942;2022-07-29T12:30:49;27.20;71.90
34279;DHT22;20538;51.528;9.942;2022-07-29T12:33:27;27.40;71.80
34279;DHT22;20538;51.528;9.942;2022-07-29T12:35:58;27.40;71.30
34279;DHT22;20538;51.528;9.942;2022-07-29T12:38:24;27.30;70.80
34279;DHT22;20538;51.528;9.942;2022-07-29T12:40:52;27.00;71.40
34279;DHT22;20538;51.528;9.942;2022-07-29T12:43:22;26.70;70.50
34279;DHT22;20538;51.528;9.942;2022-07-29T12:45:50;26.90;71.60
34279;DHT22;20538;51.528;9.942;2022-07-29T12:48:17;26.90;71.40
34279;DHT22;20538;51.528;9.942;2022-07-29T12:50:55;27.10;71.10
34279;DHT22;20538;51.528;9.942;2022-07-29T12:53:21;27.10;72.40
34279;DHT22;20538;51.528;9.942;2022-07-29T12:55:49;27.20;73.00
34279;DHT22;20538;51.528;9.942;2022-07-29T12:58:46;27.40;73.60
34279;DHT22;20538;51.528;9.942;2022-07-29T13:01:16;27.50;70.00
34279;DHT22;20538;51.528;9.942;2022-07-29T13:06:39;27.70;70.70
34279;DHT22;20538;51.528;9.942;2022-07-29T13:09:14;27.60;72.20
34279;DHT22;20538;51.528;9.942;2022-07-29T13:11:45;27.80;70.70
34279;DHT22;20538;51.528;9.942;2022-07-29T13:14:13;27.80;71.40
34279;DHT22;20538;51.528;9.942;2022-07-29T13:17:06;27.90;68.90
34279;DHT22;20538;51.528;9.942;2022-07-29T13:19:49;27.70;70.70
34279;DHT22;20538;51.528;9.942;2022-07-29T13:22:20;28.10;72.20
34279;DHT22;20538;51.528;9.942;2022-07-29T13:24:55;28.10;70.10
34279;DHT22;20538;51.528;9.942;2022-07-29T13:27:24;27.80;70.20
34279;DHT22;20538;51.528;9.942;2022-07-29T13:29:50;27.80;68.30
34279;DHT22;20538;51.528;9.942;2022-07-29T13:32:22;27.90;68.00
34279;DHT22;20538;51.528;9.942;2022-07-29T13:34:48;28.20;72.30
34279;DHT22;20538;51.528;9.942;2022-07-29T13:37:14;28.40;68.40
34279;DHT22;20538;51.528;9.942;2022-07-29T13:39:40;28.50;67.10
34279;DHT22;20538;51.528;9.942;2022-07-29T13:42:06;28.50;70.80
34279;DHT22;20538;51.528;9.942;2022-07-29T13:44:33;28.20;70.60
34279;DHT22;20538;51.528;9.942;2022-07-29T13:46:58;28.10;71.10
34279;DHT22;20538;51.528;9.942;2022-07-29T13:49:25;28.10;70.80
34279;DHT22;20538;51.528;9.942;2022-07-29T13:51:50;28.10;71.30
34279;DHT22;20538;51.528;9.942;2022-07-29T13:54:16;28.60;72.30
34279;DHT22;20538;51.528;9.942;2022-07-29T13:56:42;28.80;71.60
34279;DHT22;20538;51.528;9.942;2022-07-29T13:59:07;28.70;67.10
34279;DHT22;20538;51.528;9.942;2022-07-29T14:01:36;28.50;64.10
34279;DHT22;20538;51.528;9.942;2022-07-29T14:04:02;28.10;65.40
34279;DHT22;20538;51.528;9.942;2022-07-29T14:06:28;28.20;68.10
34279;DHT22;20538;51.528;9.942;2022-07-29T14:08:54;28.10;67.30
34279;DHT22;20538;51.528;9.942;2022-07-29T14:11:20;28.30;67.00
34279;DHT22;20538;51.528;9.942;2022-07-29T14:13:46;28.30;67.40
34279;DHT22;20538;51.528;9.942;2022-07-29T14:16:12;28.30;66.40
34279;DHT22;20538;51.528;9.942;2022-07-29T14:18:37;28.60;66.40
34279;DHT22;20538;51.528;9.942;2022-07-29T14:21:03;28.70;65.80
34279;DHT22;20538;51.528;9.942;2022-07-29T14:23:29;28.70;65.90
34279;DHT22;20538;51.528;9.942;2022-07-29T14:25:55;28.40;65.90
34279;DHT22;20538;51.528;9.942;2022-07-29T14:28:20;28.70;65.70
34279;DHT22;20538;51.528;9.942;2022-07-29T14:30:46;28.80;64.70
34279;DHT22;20538;51.528;9.942;2022-07-29T14:33:12;28.60;65.40
34279;DHT22;20538;51.528;9.942;2022-07-29T14:35:38;28.60;65.30
34279;DHT22;20538;51.528;9.942;2022-07-29T14:38:04;28.40;65.00
34279;DHT22;20538;51.528;9.942;2022-07-29T14:40:29;28.60;64.50
34279;DHT22;20538;51.528;9.942;2022-07-29T14:42:55;28.50;65.40
34279;DHT22;20538;51.528;9.942;2022-07-29T14:45:21;28.40;65.60
34279;DHT22;20538;51.528;9.942;2022-07-29T14:47:49;28.60;65.40
34279;DHT22;20538;51.528;9.942;2022-07-29T14:50:16;28.80;64.50
34279;DHT22;20538;51.528;9.942;2022-07-29T14:52:42;28.80;65.60
34279;DHT22;20538;51.528;9.942;2022-07-29T14:55:08;29.00;64.50
34279;DHT22;20538;51.528;9.942;2022-07-29T14:57:34;29.00;65.10
34279;DHT22;20538;51.528;9.942;2022-07-29T15:00:00;29.20;63.80
34279;DHT22;20538;51.528;9.942;2022-07-29T15:02:25;28.60;63.40
34279;DHT22;20538;51.528;9.942;2022-07-29T15:04:51;28.40;65.10
34279;DHT22;20538;51.528;9.942;2022-07-29T15:07:17;28.40;64.50
34279;DHT22;20538;51.528;9.942;2022-07-29T15:09:42;28.30;64.10
34279;DHT22;20538;51.528;9.942;2022-07-29T15:12:10;28.60;65.00
34279;DHT22;20538;51.528;9.942;2022-07-29T15:14:36;28.90;63.60
34279;DHT22;20538;51.528;9.942;2022-07-29T15:17:02;29.20;63.70
34279;DHT22;20538;51.528;9.942;2022-07-29T15:19:27;29.50;63.00
34279;DHT22;20538;51.528;9.942;2022-07-29T15:21:53;29.80;62.10
34279;DHT22;20538;51.528;9.942;2022-07-29T15:24:19;29.60;62.70
34279;DHT22;20538;51.528;9.942;2022-07-29T15:26:46;29.40;61.20
34279;DHT22;20538;51.528;9.942;2022-07-29T15:29:12;29.30;62.40
34279;DHT22;20538;51.528;9.942;2022-07-29T15:31:38;29.50;63.90
34279;DHT22;20538;51.528;9.942;2022-07-29T15:34:04;29.50;62.40
34279;DHT22;20538;51.528;9.942;2022-07-29T15:36:30;29.40;61.80
34279;DHT22;20538;51.528;9.942;2022-07-29T15:38:56;29.10;63.80
34279;DHT22;20538;51.528;9.942;2022-07-29T15:41:22;29.00;63.80
34279;DHT22;20538;51.528;9.942;2022-07-29T15:43:48;28.70;61.90
34279;DHT22;20538;51.528;9.942;2022-07-29T15:46:15;28.70;62.60
34279;DHT22;20538;51.528;9.942;2022-07-29T15:49:00;28.60;64.50
34279;DHT22;20538;51.528;9.942;2022-07-29T15:51:26;28.50;63.40
34279;DHT22;20538;51.528;9.942;2022-07-29T15:53:52;28.40;64.00
34279;DHT22;20538;51.528;9.942;2022-07-29T15:56:17;28.40;62.90
34279;DHT22;20538;51.528;9.942;2022-07-29T15:58:43;28.30;63.00
34279;DHT22;20538;51.528;9.942;2022-07-29T16:01:09;28.10;63.10
34279;DHT22;20538;51.528;9.942;2022-07-29T16:03:35;28.20;67.20
34279;DHT22;20538;51.528;9.942;2022-07-29T16:06:01;28.40;64.50
34279;DHT22;20538;51.528;9.942;2022-07-29T16:08:27;28.40;65.20
34279;DHT22;20538;51.528;9.942;2022-07-29T16:10:52;28.30;64.80
34279;DHT22;20538;51.528;9.942;2022-07-29T16:13:18;28.20;64.30
34279;DHT22;20538;51.528;9.942;2022-07-29T16:15:43;28.10;64.40
34279;DHT22;20538;51.528;9.942;2022-07-29T16:18:09;28.10;64.00
34279;DHT22;20538;51.528;9.942;2022-07-29T16:20:35;28.80;64.00
34279;DHT22;20538;51.528;9.942;2022-07-29T16:23:02;30.30;61.60
34279;DHT22;20538;51.528;9.942;2022-07-29T16:25:27;30.70;59.60
34279;DHT22;20538;51.528;9.942;2022-07-29T16:27:53;30.80;60.10